createdAt,value
2022-11-01T00:01:58.792Z,96492.78
2022-11-01T00:04:28.773Z,96503.72
2022-11-01T00:06:57.590Z,96497.41
2022-11-01T00:09:26.149Z,96495.34
2022-11-01T00:11:55.418Z,96495.94
2022-11-01T00:14:23.980Z,96500.09
2022-11-01T00:16:53.660Z,96491.25
2022-11-01T00:19:22.061Z,96483.81
2022-11-01T00:21:52.734Z,96491.44
2022-11-01T00:24:21.701Z,96502.03
2022-11-01T00:26:50.069Z,96536.47
2022-11-01T00:29:19.217Z,96523.28
2022-11-01T00:31:47.761Z,96531.44
2022-11-01T00:34:17.281Z,96522.59
2022-11-01T00:36:46.894Z,96534.84
2022-11-01T00:39:17.553Z,96530.09
2022-11-01T00:41:46.746Z,96527.13
2022-11-01T00:44:15.135Z,96537.50
2022-11-01T00:46:44.605Z,96536.44
2022-11-01T00:49:12.990Z,96533.41
2022-11-01T00:51:42.329Z,96529.84
2022-11-01T00:54:10.693Z,96533.41
2022-11-01T00:56:41.502Z,96525.72
2022-11-01T00:59:09.943Z,96526.09
2022-11-01T01:01:39.275Z,96520.66
2022-11-01T01:04:07.813Z,96518.16
2022-11-01T01:06:36.454Z,96515.22
2022-11-01T01:09:05.278Z,96521.78
2022-11-01T01:11:34.157Z,96524.63
2022-11-01T01:14:04.409Z,96518.84
2022-11-01T01:16:33.308Z,96519.34
2022-11-01T01:19:01.681Z,96515.63
2022-11-01T01:21:30.884Z,96509.53
2022-11-01T01:23:59.221Z,96512.81
2022-11-01T01:26:28.328Z,96503.75
2022-11-01T01:28:57.072Z,96507.53
2022-11-01T01:31:26.840Z,96511.31
2022-11-01T01:33:56.119Z,96513.22
2022-11-01T01:36:25.087Z,96508.84
2022-11-01T01:38:54.581Z,96499.81
2022-11-01T01:41:41.056Z,96505.06
2022-11-01T01:45:05.626Z,96511.31
2022-11-01T01:47:38.094Z,96501.59
2022-11-01T01:50:09.154Z,96495.72
2022-11-01T01:52:41.718Z,96485.59
2022-11-01T01:55:11.860Z,96492.44
2022-11-01T01:57:42.734Z,96480.94
2022-11-01T02:00:12.703Z,96491.97
2022-11-01T02:02:44.726Z,96490.47
2022-11-01T02:05:19.522Z,96490.53
2022-11-01T02:07:48.097Z,96495.72
2022-11-01T02:10:17.595Z,96496.09
2022-11-01T02:12:48.704Z,96481.97
2022-11-01T02:15:22.097Z,96464.31
2022-11-01T02:18:05.397Z,96474.66
2022-11-01T02:21:06.360Z,96478.63
2022-11-01T02:24:08.632Z,96487.00
2022-11-01T02:26:59.389Z,96483.69
2022-11-01T02:30:09.329Z,96482.03
2022-11-01T02:33:05.467Z,96475.66
2022-11-01T02:35:44.711Z,96476.75
2022-11-01T02:38:20.339Z,96469.13
2022-11-01T02:41:00.577Z,96481.34
2022-11-01T02:43:35.057Z,96480.06
2022-11-01T02:46:21.806Z,96483.00
2022-11-01T02:48:52.137Z,96519.94
2022-11-01T02:51:24.180Z,96530.72
2022-11-01T02:53:52.592Z,96531.41
2022-11-01T02:56:23.212Z,96526.00
2022-11-01T02:58:53.728Z,96531.28
2022-11-01T03:01:27.415Z,96524.09
2022-11-01T03:03:59.361Z,96527.97
2022-11-01T03:06:34.800Z,96523.63
2022-11-01T03:09:05.816Z,96513.25
2022-11-01T03:11:41.540Z,96525.72
2022-11-01T03:14:21.295Z,96528.13
2022-11-01T03:16:56.567Z,96539.78
2022-11-01T03:19:36.372Z,96534.47
2022-11-01T03:22:11.790Z,96538.88
2022-11-01T03:24:46.827Z,96522.63
2022-11-01T03:27:21.628Z,96540.06
2022-11-01T03:29:57.004Z,96549.75
2022-11-01T03:32:29.969Z,96554.69
2022-11-01T03:35:02.279Z,96559.28
2022-11-01T03:37:33.900Z,96564.34
2022-11-01T03:40:05.327Z,96568.72
2022-11-01T03:42:35.836Z,96574.50
2022-11-01T03:45:10.883Z,96579.66
2022-11-01T03:47:39.375Z,96567.06
2022-11-01T03:50:18.553Z,96575.88
2022-11-01T03:52:47.215Z,96574.75
2022-11-01T03:55:20.286Z,96578.94
2022-11-01T03:57:50.081Z,96582.25
2022-11-01T04:00:21.832Z,96578.03
2022-11-01T04:02:50.716Z,96580.88
2022-11-01T04:05:22.410Z,96571.50
2022-11-01T04:07:52.164Z,96577.41
2022-11-01T04:10:21.928Z,96561.66
2022-11-01T04:12:52.749Z,96563.78
2022-11-01T04:15:40.528Z,96574.75
2022-11-01T04:18:32.988Z,96576.72
2022-11-01T04:21:06.856Z,96579.66
2022-11-01T04:23:35.908Z,96576.34
2022-11-01T04:26:05.611Z,96574.56
2022-11-01T04:28:34.373Z,96576.09
2022-11-01T04:31:03.335Z,96591.19
2022-11-01T04:33:32.622Z,96598.25
2022-11-01T04:36:06.958Z,96592.34
2022-11-01T04:38:35.389Z,96589.19
2022-11-01T04:41:03.789Z,96585.22
2022-11-01T04:43:33.024Z,96581.91
2022-11-01T04:46:01.947Z,96580.16
2022-11-01T04:48:30.291Z,96575.56
2022-11-01T04:51:01.603Z,96587.69
2022-11-01T04:53:31.319Z,96590.41
2022-11-01T04:55:59.665Z,96597.00
2022-11-01T04:58:28.060Z,96588.88
2022-11-01T05:00:56.558Z,96590.63
2022-11-01T05:03:25.162Z,96597.34
2022-11-01T05:05:53.559Z,96594.38
2022-11-01T05:08:21.875Z,96614.06
2022-11-01T05:10:54.613Z,96607.13
2022-11-01T05:13:23.078Z,96590.25
2022-11-01T05:16:06.588Z,96588.16
2022-11-01T05:18:43.290Z,96598.53
2022-11-01T05:21:12.417Z,96609.00
2022-11-01T05:23:40.849Z,96603.69
2022-11-01T05:26:11.028Z,96603.09
2022-11-01T05:28:39.436Z,96611.13
2022-11-01T05:31:08.395Z,96617.09
2022-11-01T05:33:36.759Z,96608.63
2022-11-01T05:36:06.749Z,96621.59
2022-11-01T05:38:35.164Z,96622.19
2022-11-01T05:41:04.850Z,96627.09
2022-11-01T05:43:34.856Z,96631.59
2022-11-01T05:46:04.991Z,96628.66
2022-11-01T05:48:34.383Z,96638.44
2022-11-01T05:51:03.264Z,96639.13
2022-11-01T05:53:31.617Z,96637.84
2022-11-01T05:56:01.368Z,96643.91
2022-11-01T05:58:31.178Z,96661.59
2022-11-01T06:01:01.685Z,96659.94
2022-11-01T06:03:30.910Z,96667.72
2022-11-01T06:05:59.735Z,96671.38
2022-11-01T06:08:29.329Z,96682.47
2022-11-01T06:11:03.033Z,96675.84
2022-11-01T06:13:32.024Z,96663.56
2022-11-01T06:16:03.648Z,96667.59
2022-11-01T06:18:32.102Z,96666.28
2022-11-01T06:21:01.437Z,96682.53
2022-11-01T06:23:29.839Z,96685.03
2022-11-01T06:26:02.607Z,96692.88
2022-11-01T06:28:31.020Z,96690.63
2022-11-01T06:31:03.122Z,96682.59
2022-11-01T06:33:32.140Z,96683.66
2022-11-01T06:36:02.259Z,96705.31
2022-11-01T06:38:30.879Z,96704.25
2022-11-01T06:41:00.207Z,96717.31
2022-11-01T06:43:29.109Z,96722.41
2022-11-01T06:46:01.881Z,96725.84
2022-11-01T06:48:31.335Z,96739.38
2022-11-01T06:50:59.775Z,96750.00
2022-11-01T06:53:29.025Z,96759.88
2022-11-01T06:55:59.660Z,96757.53
2022-11-01T06:58:29.357Z,96759.09
2022-11-01T07:00:57.762Z,96770.50
2022-11-01T07:03:28.515Z,96773.00
2022-11-01T07:05:57.374Z,96776.53
2022-11-01T07:08:25.763Z,96777.13
2022-11-01T07:10:55.596Z,96783.84
2022-11-01T07:13:24.503Z,96792.56
2022-11-01T07:15:52.833Z,96796.91
2022-11-01T07:18:21.671Z,96797.25
2022-11-01T07:20:51.826Z,96793.53
2022-11-01T07:23:20.550Z,96796.00
2022-11-01T07:25:52.045Z,96806.22
2022-11-01T07:28:21.443Z,96812.56
2022-11-01T07:30:50.261Z,96814.22
2022-11-01T07:33:19.887Z,96804.22
2022-11-01T07:35:48.911Z,96820.63
2022-11-01T07:38:19.135Z,96820.28
2022-11-01T07:40:49.888Z,96825.25
2022-11-01T07:43:18.746Z,96825.59
2022-11-01T07:45:48.651Z,96827.38
2022-11-01T07:48:19.558Z,96831.19
2022-11-01T07:50:48.422Z,96829.78
2022-11-01T07:53:20.605Z,96835.53
2022-11-01T07:55:49.886Z,96824.25
2022-11-01T07:58:18.576Z,96824.75
2022-11-01T08:00:47.698Z,96829.00
2022-11-01T08:03:18.274Z,96791.72
2022-11-01T08:05:49.363Z,96821.94
2022-11-01T08:08:19.449Z,96811.66
2022-11-01T08:10:47.828Z,96824.16
2022-11-01T08:13:18.404Z,96824.03
2022-11-01T08:15:47.648Z,96824.59
2022-11-01T08:18:16.662Z,96828.13
2022-11-01T08:20:47.055Z,96837.53
2022-11-01T08:23:15.457Z,96834.78
2022-11-01T08:25:45.314Z,96836.06
2022-11-01T08:28:15.774Z,96826.91
2022-11-01T08:30:46.723Z,96837.66
2022-11-01T08:33:16.127Z,96831.72
2022-11-01T08:35:50.211Z,96831.88
2022-11-01T08:38:20.078Z,96842.03
2022-11-01T08:40:49.837Z,96838.66
2022-11-01T08:43:18.413Z,96837.41
2022-11-01T08:45:47.256Z,96838.56
2022-11-01T08:48:16.113Z,96838.78
2022-11-01T08:50:44.983Z,96839.16
2022-11-01T08:53:15.226Z,96837.25
2022-11-01T08:55:44.296Z,96832.59
2022-11-01T08:58:14.586Z,96840.84
2022-11-01T09:00:44.723Z,96836.34
2022-11-01T09:03:15.283Z,96830.16
2022-11-01T09:05:43.702Z,96833.88
2022-11-01T09:08:12.626Z,96830.16
2022-11-01T09:10:41.469Z,96838.56
2022-11-01T09:13:10.415Z,96832.13
2022-11-01T09:15:40.601Z,96834.84
2022-11-01T09:18:10.009Z,96838.28
2022-11-01T09:20:38.803Z,96834.75
2022-11-01T09:23:07.605Z,96848.06
2022-11-01T09:25:37.139Z,96847.88
2022-11-01T09:28:05.836Z,96844.22
2022-11-01T09:30:34.679Z,96843.59
2022-11-01T09:33:07.192Z,96856.94
2022-11-01T09:35:36.458Z,96857.63
2022-11-01T09:38:05.196Z,96848.88
2022-11-01T09:40:44.516Z,96859.53
2022-11-01T09:43:21.093Z,96860.38
2022-11-01T09:45:53.066Z,96863.72
2022-11-01T09:48:25.534Z,96858.38
2022-11-01T09:50:55.164Z,96861.88
2022-11-01T09:53:27.355Z,96854.34
2022-11-01T09:56:05.348Z,96861.41
2022-11-01T09:58:46.518Z,96858.97
2022-11-01T10:01:28.111Z,96868.44
2022-11-01T10:04:09.760Z,96877.97
2022-11-01T10:06:43.611Z,96874.91
2022-11-01T10:09:22.672Z,96882.88
2022-11-01T10:12:14.028Z,96878.19
2022-11-01T10:14:55.635Z,96873.59
2022-11-01T10:17:47.023Z,96867.34
2022-11-01T10:20:21.433Z,96867.31
2022-11-01T10:22:51.206Z,96869.31
2022-11-01T10:25:23.225Z,96865.25
2022-11-01T10:27:58.684Z,96866.66
2022-11-01T10:30:31.698Z,96868.13
2022-11-01T10:33:04.553Z,96851.03
2022-11-01T10:35:38.865Z,96851.66
2022-11-01T10:38:49.591Z,96846.44
2022-11-01T10:41:13.800Z,96862.34
2022-11-01T10:43:48.115Z,96860.47
2022-11-01T10:46:21.323Z,96859.06
2022-11-01T10:48:53.324Z,96867.56
2022-11-01T10:51:28.073Z,96857.69
2022-11-01T10:54:00.001Z,96861.78
2022-11-01T10:56:34.740Z,96868.88
2022-11-01T10:59:06.141Z,96866.41
2022-11-01T11:01:42.769Z,96858.59
2022-11-01T11:04:16.017Z,96871.97
2022-11-01T11:06:45.952Z,96875.25
2022-11-01T11:09:24.062Z,96871.88
2022-11-01T11:11:54.997Z,96872.50
2022-11-01T11:14:24.058Z,96877.53
2022-11-01T11:16:55.647Z,96870.88
2022-11-01T11:19:32.695Z,96884.28
2022-11-01T11:22:06.944Z,96873.84
2022-11-01T11:24:39.153Z,96881.91
2022-11-01T11:27:19.066Z,96878.16
2022-11-01T11:29:51.472Z,96879.06
2022-11-01T11:32:21.964Z,96874.47
2022-11-01T11:34:56.618Z,96868.78
2022-11-01T11:37:29.748Z,96868.78
2022-11-01T11:40:04.075Z,96865.78
2022-11-01T11:42:33.213Z,96862.78
2022-11-01T11:45:17.056Z,96859.22
2022-11-01T11:47:47.007Z,96869.34
2022-11-01T11:50:26.213Z,96856.75
2022-11-01T11:53:01.146Z,96855.06
2022-11-01T11:55:38.557Z,96841.34
2022-11-01T11:58:20.678Z,96844.28
2022-11-01T12:00:54.560Z,96858.22
2022-11-01T12:03:23.684Z,96848.09
2022-11-01T12:05:55.721Z,96857.72
2022-11-01T12:08:39.395Z,96854.44
2022-11-01T12:11:07.895Z,96846.81
2022-11-01T12:13:39.386Z,96852.84
2022-11-01T12:16:20.388Z,96844.66
2022-11-01T12:18:52.636Z,96849.03
2022-11-01T12:21:27.729Z,96846.84
2022-11-01T12:24:04.197Z,96853.72
2022-11-01T12:26:37.421Z,96854.53
2022-11-01T12:29:20.673Z,96845.22
2022-11-01T12:31:50.291Z,96854.53
2022-11-01T12:34:23.380Z,96838.09
2022-11-01T12:36:58.490Z,96852.88
2022-11-01T12:39:44.711Z,96845.81
2022-11-01T12:42:20.062Z,96849.88
2022-11-01T12:44:52.753Z,96826.63
2022-11-01T12:47:26.313Z,96842.75
2022-11-01T12:49:58.903Z,96841.91
2022-11-01T12:52:33.049Z,96851.25
2022-11-01T12:55:10.114Z,96847.97
2022-11-01T12:57:38.991Z,96846.31
2022-11-01T13:00:09.241Z,96856.16
2022-11-01T13:03:05.756Z,96855.63
2022-11-01T13:05:50.783Z,96856.69
2022-11-01T13:08:27.685Z,96853.94
2022-11-01T13:11:04.365Z,96854.28
2022-11-01T13:13:40.509Z,96850.97
2022-11-01T13:16:16.768Z,96857.03
2022-11-01T13:18:52.539Z,96855.91
2022-11-01T13:21:34.673Z,96847.63
2022-11-01T13:24:14.321Z,96848.06
2022-11-01T13:26:50.422Z,96855.63
2022-11-01T13:29:24.260Z,96862.16
2022-11-01T13:32:04.541Z,96856.91
2022-11-01T13:34:43.453Z,96857.41
2022-11-01T13:37:22.073Z,96863.16
2022-11-01T13:40:08.352Z,96868.28
2022-11-01T13:42:42.023Z,96876.56
2022-11-01T13:45:51.353Z,96876.19
2022-11-01T13:48:34.088Z,96875.41
2022-11-01T13:51:13.690Z,96879.25
2022-11-01T13:53:47.060Z,96880.88
2022-11-01T13:56:22.305Z,96879.25
2022-11-01T13:58:52.160Z,96880.88
2022-11-01T14:01:32.825Z,96872.00
2022-11-01T14:04:46.825Z,96874.19
2022-11-01T14:07:17.140Z,96874.09
2022-11-01T14:09:48.047Z,96877.56
2022-11-01T14:12:43.338Z,96872.66
2022-11-01T14:15:25.360Z,96877.66
2022-11-01T14:18:07.484Z,96872.22
2022-11-01T14:20:53.741Z,96866.47
2022-11-01T14:23:51.129Z,96873.66
2022-11-01T14:26:36.949Z,96870.72
2022-11-01T14:29:12.682Z,96876.84
2022-11-01T14:31:45.995Z,96872.69
2022-11-01T14:34:27.724Z,96879.81
2022-11-01T14:37:01.937Z,96877.53
2022-11-01T14:39:37.435Z,96876.34
2022-11-01T14:42:12.005Z,96883.38
2022-11-01T14:44:48.119Z,96876.91
2022-11-01T14:47:33.051Z,96874.81
2022-11-01T14:50:07.770Z,96871.06
2022-11-01T14:52:42.470Z,96878.53
2022-11-01T14:55:18.474Z,96872.84
2022-11-01T14:57:48.503Z,96872.88
2022-11-01T15:00:28.896Z,96869.91
2022-11-01T15:03:01.765Z,96876.81
2022-11-01T15:05:30.211Z,96873.06
2022-11-01T15:08:00.548Z,96874.22
2022-11-01T15:10:40.504Z,96872.63
2022-11-01T15:13:09.449Z,96876.75
2022-11-01T15:15:39.104Z,96881.97
2022-11-01T15:18:16.960Z,96878.41
2022-11-01T15:20:50.264Z,96872.94
2022-11-01T15:23:21.684Z,96877.34
2022-11-01T15:25:52.671Z,96879.88
2022-11-01T15:28:24.696Z,96872.75
2022-11-01T15:30:57.368Z,96876.59
2022-11-01T15:33:30.756Z,96879.59
2022-11-01T15:36:01.298Z,96888.38
2022-11-01T15:38:33.291Z,96886.47
2022-11-01T15:41:20.177Z,96888.94
2022-11-01T15:43:53.331Z,96890.31
2022-11-01T15:46:23.054Z,96892.47
2022-11-01T15:48:56.284Z,96902.28
2022-11-01T15:51:28.319Z,96899.84
2022-11-01T15:54:02.233Z,96900.63
2022-11-01T15:56:42.988Z,96896.78
2022-11-01T15:59:20.071Z,96898.66
2022-11-01T16:01:50.438Z,96890.41
2022-11-01T16:04:22.561Z,96887.38
2022-11-01T16:06:57.314Z,96896.66
2022-11-01T16:09:36.714Z,96905.66
2022-11-01T16:12:13.988Z,96902.63
2022-11-01T16:14:43.431Z,96914.38
2022-11-01T16:17:25.115Z,96907.47
2022-11-01T16:19:55.466Z,96918.91
2022-11-01T16:22:47.552Z,96915.38
2022-11-01T16:25:20.764Z,96914.78
2022-11-01T16:28:03.694Z,96917.50
2022-11-01T16:30:37.798Z,96915.53
2022-11-01T16:33:17.519Z,96917.38
2022-11-01T16:35:48.992Z,96924.16
2022-11-01T16:38:26.311Z,96923.31
2022-11-01T16:40:57.719Z,96934.22
2022-11-01T16:43:29.411Z,96935.88
2022-11-01T16:45:58.983Z,96934.72
2022-11-01T16:48:30.619Z,96937.41
2022-11-01T16:51:03.120Z,96944.78
2022-11-01T16:53:32.197Z,96951.00
2022-11-01T16:56:35.008Z,96945.53
2022-11-01T16:59:05.880Z,96957.34
2022-11-01T17:01:36.904Z,96952.16
2022-11-01T17:04:06.892Z,96957.59
2022-11-01T17:06:39.485Z,96960.00
2022-11-01T17:09:14.426Z,96959.44
2022-11-01T17:11:50.886Z,96970.91
2022-11-01T17:14:21.808Z,96970.09
2022-11-01T17:16:53.958Z,96967.91
2022-11-01T17:19:30.699Z,96969.28
2022-11-01T17:22:04.586Z,96972.50
2022-11-01T17:24:35.758Z,96979.59
2022-11-01T17:27:06.812Z,96971.91
2022-11-01T17:29:37.017Z,96969.84
2022-11-01T17:32:10.484Z,96976.66
2022-11-01T17:34:40.491Z,96973.09
2022-11-01T17:37:17.736Z,96976.28
2022-11-01T17:39:47.020Z,96969.81
2022-11-01T17:42:17.446Z,96977.13
2022-11-01T17:44:47.929Z,96981.97
2022-11-01T17:47:17.243Z,96980.06
2022-11-01T17:49:46.901Z,96979.78
2022-11-01T17:52:18.435Z,96973.81
2022-11-01T17:54:47.947Z,96978.00
2022-11-01T17:57:18.735Z,96987.25
2022-11-01T17:59:48.818Z,96975.72
2022-11-01T18:02:18.716Z,96975.16
2022-11-01T18:04:48.928Z,96978.72
2022-11-01T18:07:21.364Z,96980.94
2022-11-01T18:09:50.653Z,96981.19
2022-11-01T18:12:35.074Z,96981.19
2022-11-01T18:15:15.818Z,96986.13
2022-11-01T18:17:55.940Z,96986.13
2022-11-01T18:20:39.268Z,96983.34
2022-11-01T18:23:14.038Z,96983.88
2022-11-01T18:25:47.912Z,96984.34
2022-11-01T18:28:20.091Z,96986.81
2022-11-01T18:30:55.582Z,96983.16
2022-11-01T18:33:34.455Z,96973.84
2022-11-01T18:36:14.252Z,96980.13
2022-11-01T18:38:52.455Z,96983.44
2022-11-01T18:41:23.420Z,96980.63
2022-11-01T18:43:54.082Z,96989.63
2022-11-01T18:46:26.250Z,96984.25
2022-11-01T18:49:00.601Z,96993.19
2022-11-01T18:51:31.679Z,96992.44
2022-11-01T18:54:20.691Z,96986.72
2022-11-01T18:56:52.635Z,96979.88
2022-11-01T18:59:30.602Z,96977.28
2022-11-01T19:02:03.939Z,96988.09
2022-11-01T19:04:35.639Z,96985.63
2022-11-01T19:07:13.003Z,96996.53
2022-11-01T19:09:47.098Z,96995.97
2022-11-01T19:12:25.481Z,96992.19
2022-11-01T19:15:00.127Z,96991.09
2022-11-01T19:17:30.551Z,96986.19
2022-11-01T19:19:59.759Z,96994.91
2022-11-01T19:22:34.253Z,96986.72
2022-11-01T19:25:16.939Z,96990.84
2022-11-01T19:27:45.780Z,96984.31
2022-11-01T19:30:33.155Z,96986.53
2022-11-01T19:33:16.501Z,96984.56
2022-11-01T19:35:45.846Z,96990.59
2022-11-01T19:38:16.280Z,96985.38
2022-11-01T19:40:52.045Z,96993.25
2022-11-01T19:43:22.259Z,96997.63
2022-11-01T19:45:52.964Z,96996.16
2022-11-01T19:48:23.462Z,96987.34
2022-11-01T19:50:52.010Z,96996.34
2022-11-01T19:53:23.588Z,96996.09
2022-11-01T19:56:00.765Z,96996.34
2022-11-01T19:58:39.429Z,96999.59
2022-11-01T20:01:25.924Z,97003.63
2022-11-01T20:03:57.305Z,97008.03
2022-11-01T20:06:32.928Z,97005.31
2022-11-01T20:09:06.857Z,97000.94
2022-11-01T20:11:37.465Z,97007.47
2022-11-01T20:14:06.124Z,97005.75
2022-11-01T20:16:35.353Z,97007.38
2022-11-01T20:19:03.756Z,97005.75
2022-11-01T20:21:33.938Z,97005.06
2022-11-01T20:24:04.305Z,96994.00
2022-11-01T20:26:33.133Z,97001.44
2022-11-01T20:29:03.118Z,97002.84
2022-11-01T20:31:32.996Z,97000.38
2022-11-01T20:34:01.573Z,97002.53
2022-11-01T20:36:30.858Z,96995.50
2022-11-01T20:38:59.385Z,97002.19
2022-11-01T20:41:28.441Z,97003.88
2022-11-01T20:43:56.957Z,97005.78
2022-11-01T20:46:27.528Z,97008.50
2022-11-01T20:48:55.974Z,97014.84
2022-11-01T20:51:24.321Z,97017.06
2022-11-01T20:53:54.912Z,97016.25
2022-11-01T20:56:23.288Z,97014.97
2022-11-01T20:58:52.724Z,97018.72
2022-11-01T21:01:22.255Z,97031.75
2022-11-01T21:03:53.730Z,97038.53
2022-11-01T21:06:23.826Z,97028.72
2022-11-01T21:08:52.751Z,97031.19
2022-11-01T21:11:25.126Z,97031.44
2022-11-01T21:13:54.600Z,97028.94
2022-11-01T21:16:25.292Z,97036.19
2022-11-01T21:19:01.088Z,97030.91
2022-11-01T21:21:35.126Z,97033.88
2022-11-01T21:24:27.078Z,97037.63
2022-11-01T21:27:01.724Z,97035.66
2022-11-01T21:29:30.637Z,97038.84
2022-11-01T21:31:59.944Z,97042.91
2022-11-01T21:34:31.857Z,97041.81
2022-11-01T21:37:01.324Z,97044.53
2022-11-01T21:39:33.218Z,97041.25
2022-11-01T21:42:05.712Z,97039.13
2022-11-01T21:44:40.073Z,97047.28
2022-11-01T21:47:16.346Z,97047.53
2022-11-01T21:49:46.842Z,97041.53
2022-11-01T21:52:15.499Z,97035.25
2022-11-01T21:54:44.823Z,97034.91
2022-11-01T21:57:14.607Z,97038.63
2022-11-01T21:59:44.825Z,97037.78
2022-11-01T22:02:15.028Z,97043.94
2022-11-01T22:04:44.883Z,97035.88
2022-11-01T22:07:15.187Z,97033.66
2022-11-01T22:09:43.565Z,97031.53
2022-11-01T22:12:12.495Z,97012.31
2022-11-01T22:14:40.929Z,97019.16
2022-11-01T22:17:09.316Z,97025.41
2022-11-01T22:19:38.089Z,97022.34
2022-11-01T22:22:06.500Z,97017.75
2022-11-01T22:24:36.783Z,97018.81
2022-11-01T22:27:05.225Z,97019.75
2022-11-01T22:29:33.988Z,97015.97
2022-11-01T22:32:03.154Z,97011.84
2022-11-01T22:34:31.992Z,97015.78
2022-11-01T22:37:01.392Z,97009.97
2022-11-01T22:39:31.411Z,97021.66
2022-11-01T22:42:02.293Z,97008.44
2022-11-01T22:44:33.056Z,97009.84
2022-11-01T22:47:03.612Z,97020.84
2022-11-01T22:49:35.049Z,97008.69
2022-11-01T22:52:11.902Z,97017.91
2022-11-01T22:54:43.916Z,97016.00
2022-11-01T22:57:17.140Z,97019.19
2022-11-01T22:59:47.699Z,97019.81
2022-11-01T23:02:27.447Z,97012.22
2022-11-01T23:05:02.897Z,97013.06
2022-11-01T23:07:35.153Z,97013.53
2022-11-01T23:10:06.255Z,97017.66
2022-11-01T23:12:55.533Z,97010.69
2022-11-01T23:15:28.120Z,97009.41
2022-11-01T23:18:03.264Z,97013.28
2022-11-01T23:20:31.707Z,97015.19
2022-11-01T23:23:00.945Z,97018.16
2022-11-01T23:25:32.989Z,97012.00
2022-11-01T23:28:03.121Z,97007.66
2022-11-01T23:30:31.576Z,97017.31
2022-11-01T23:33:00.936Z,97023.09
2022-11-01T23:35:30.041Z,97017.09
2022-11-01T23:38:00.107Z,97026.50
2022-11-01T23:40:33.798Z,97022.88
2022-11-01T23:43:04.349Z,97028.28
2022-11-01T23:45:35.502Z,97018.22
2022-11-01T23:48:04.627Z,97023.66
2022-11-01T23:50:36.162Z,97024.59
2022-11-01T23:53:07.609Z,97034.03
2022-11-01T23:55:40.169Z,97034.59
2022-11-01T23:58:13.473Z,97033.75
